Time;durP1;ratioP1;P1;durP2;ratioP2;P2;SDS_P1;SDS_P2;PMS_P1;PMS_P2;Temp;Humidity;BMP_temperature;BMP_pressure;BME280_temperature;BME280_humidity;BME280_pressure;Samples;Min_cycle;Max_cycle;Signal;HPM_P1;HPM_P2
2023/10/08 00:02:00;;;;;;;9.95;5.65;;;;;;;;;;4363470;32;20247;-91
2023/10/08 00:04:27;;;;;;;7.60;4.82;;;;;;;;;;4359413;32;20364;-92
2023/10/08 00:06:58;;;;;;;10.70;6.00;;;;;;;;;;4363101;32;20238;-92
2023/10/08 00:09:36;;;;;;;7.95;5.30;;;;;;;;;;4340160;32;20257;-92
2023/10/08 00:12:05;;;;;;;8.38;5.57;;;;;;;;;;4302485;32;20246;-93
2023/10/08 00:14:43;;;;;;;10.60;5.82;;;;;;;;;;4345905;32;20242;-91
2023/10/08 00:17:11;;;;;;;9.88;5.07;;;;;;;;;;4328342;32;20324;-91
2023/10/08 00:19:42;;;;;;;9.27;5.32;;;;;;;;;;4359728;32;20237;-91
2023/10/08 00:22:13;;;;;;;8.73;5.25;;;;;;;;;;4335797;32;20265;-90
2023/10/08 00:24:44;;;;;;;9.32;5.32;;;;;;;;;;4360039;32;20231;-91
2023/10/08 00:27:17;;;;;;;7.15;4.97;;;;;;;;;;4359762;32;20385;-90
2023/10/08 00:29:47;;;;;;;8.30;4.18;;;;;;;;;;4339278;32;20283;-91
2023/10/08 00:32:17;;;;;;;10.13;5.12;;;;;;;;;;4318612;32;20246;-91
2023/10/08 00:34:44;;;;;;;7.78;4.75;;;;;;;;;;4342722;32;20234;-90
2023/10/08 00:37:16;;;;;;;9.05;4.68;;;;;;;;;;4359527;32;20257;-91
2023/10/08 00:39:45;;;;;;;10.05;5.07;;;;;;;;;;4318598;32;20332;-92
2023/10/08 00:42:12;;;;;;;9.00;5.72;;;;;;;;;;4335546;32;20280;-92
2023/10/08 00:44:47;;;;;;;7.97;5.75;;;;;;;;;;4362819;32;20735;-92
2023/10/08 00:47:20;;;;;;;12.07;6.72;;;;;;;;;;4359532;32;20230;-91
2023/10/08 00:50:03;;;;;;;7.25;5.07;;;;;;;;;;4359079;32;20619;-91
2023/10/08 00:52:57;;;;;;;15.63;5.97;;;;;;;;;;4356420;32;20686;-91
2023/10/08 00:55:35;;;;;;;8.07;5.53;;;;;;;;;;4358744;32;20855;-89
2023/10/08 00:58:09;;;;;;;11.75;4.97;;;;;;;;;;4302089;32;20256;-92
2023/10/08 01:00:41;;;;;;;10.43;6.10;;;;;;;;;;4325946;32;20234;-92
2023/10/08 01:03:23;;;;;;;20.33;13.90;;;;;;;;;;4359097;32;20222;-91
2023/10/08 01:05:54;;;;;;;22.13;15.43;;;;;;;;;;4358793;32;20579;-90
2023/10/08 01:08:35;;;;;;;19.45;13.15;;;;;;;;;;4356907;32;20609;-91
2023/10/08 01:18:32;;;;;;;13.25;7.80;;;;;;;;;;4495939;31;20259;-87
2023/10/08 01:21:07;;;;;;;9.55;6.03;;;;;;;;;;4482390;32;20727;-88
2023/10/08 01:23:38;;;;;;;10.15;5.62;;;;;;;;;;4482483;32;20649;-89
2023/10/08 01:26:11;;;;;;;7.32;4.37;;;;;;;;;;4482276;32;20700;-89
2023/10/08 01:28:38;;;;;;;8.85;5.22;;;;;;;;;;4482513;32;20572;-87
2023/10/08 01:31:07;;;;;;;8.75;4.70;;;;;;;;;;4481664;32;20204;-87
2023/10/08 01:33:38;;;;;;;16.50;8.25;;;;;;;;;;4481732;32;20691;-88
2023/10/08 01:36:12;;;;;;;14.90;8.68;;;;;;;;;;4474635;32;20196;-88
2023/10/08 01:38:42;;;;;;;16.33;8.05;;;;;;;;;;4466236;32;20575;-88
2023/10/08 01:41:18;;;;;;;14.93;7.95;;;;;;;;;;4465994;32;20603;-87
2023/10/08 01:43:46;;;;;;;17.52;7.87;;;;;;;;;;4466391;32;20759;-87
2023/10/08 01:46:15;;;;;;;19.80;8.30;;;;;;;;;;4466001;32;20562;-88
2023/10/08 01:48:44;;;;;;;13.83;7.40;;;;;;;;;;4465861;32;20571;-87
2023/10/08 01:51:24;;;;;;;14.45;7.20;;;;;;;;;;4465775;32;20637;-88
2023/10/08 01:53:55;;;;;;;18.23;7.03;;;;;;;;;;4466330;32;20711;-87
2023/10/08 01:56:24;;;;;;;15.27;7.60;;;;;;;;;;4465714;32;20311;-85
2023/10/08 01:58:51;;;;;;;13.07;6.60;;;;;;;;;;4465705;32;20621;-88
2023/10/08 02:01:21;;;;;;;13.60;6.70;;;;;;;;;;4466109;32;20660;-88
2023/10/08 02:03:49;;;;;;;13.83;7.00;;;;;;;;;;4465603;32;20561;-88
2023/10/08 02:06:17;;;;;;;18.17;7.05;;;;;;;;;;4466149;32;20647;-87
2023/10/08 02:08:44;;;;;;;13.35;7.22;;;;;;;;;;4466155;32;20228;-88
2023/10/08 02:11:15;;;;;;;13.52;6.62;;;;;;;;;;4465338;32;20653;-88
2023/10/08 02:13:43;;;;;;;17.00;6.67;;;;;;;;;;4466099;32;20625;-88
2023/10/08 02:16:10;;;;;;;18.97;7.87;;;;;;;;;;4465405;32;20581;-88
2023/10/08 02:18:38;;;;;;;12.70;6.67;;;;;;;;;;4465067;32;20542;-88
2023/10/08 02:21:05;;;;;;;11.83;6.67;;;;;;;;;;4465888;32;20216;-90
2023/10/08 02:23:34;;;;;;;13.48;6.95;;;;;;;;;;4465400;32;20572;-87
2023/10/08 02:26:02;;;;;;;9.18;6.10;;;;;;;;;;4465787;32;20597;-88
2023/10/08 02:28:33;;;;;;;8.70;5.57;;;;;;;;;;4460537;32;20264;-88
2023/10/08 02:31:00;;;;;;;12.30;6.00;;;;;;;;;;4455007;32;20553;-88
2023/10/08 02:33:30;;;;;;;11.50;5.53;;;;;;;;;;4454894;32;20650;-88
2023/10/08 02:35:57;;;;;;;13.10;6.90;;;;;;;;;;4454939;32;20295;-88
2023/10/08 02:38:25;;;;;;;14.27;7.60;;;;;;;;;;4454675;32;20522;-88
2023/10/08 02:40:56;;;;;;;12.02;6.45;;;;;;;;;;4455181;32;20276;-88
2023/10/08 02:43:24;;;;;;;11.65;5.97;;;;;;;;;;4454733;32;20525;-88
2023/10/08 02:45:55;;;;;;;11.05;4.75;;;;;;;;;;4455042;32;20758;-88
2023/10/08 02:48:24;;;;;;;9.27;5.12;;;;;;;;;;4455159;32;20578;-88
2023/10/08 02:50:53;;;;;;;12.30;5.93;;;;;;;;;;4455245;32;20691;-88
2023/10/08 02:53:23;;;;;;;12.00;4.90;;;;;;;;;;4454550;32;20235;-88
2023/10/08 02:55:51;;;;;;;9.50;5.87;;;;;;;;;;4454621;32;20560;-88
2023/10/08 02:58:19;;;;;;;9.38;6.12;;;;;;;;;;4454490;32;20618;-88
2023/10/08 03:00:47;;;;;;;11.12;4.90;;;;;;;;;;4454405;32;20561;-88
2023/10/08 03:03:18;;;;;;;9.45;5.82;;;;;;;;;;4454438;32;20274;-88
2023/10/08 03:05:50;;;;;;;11.63;5.22;;;;;;;;;;4454708;32;20545;-88
2023/10/08 03:08:20;;;;;;;8.37;5.23;;;;;;;;;;4454465;32;20617;-88
2023/10/08 03:10:50;;;;;;;13.57;5.80;;;;;;;;;;4454977;32;20188;-87
2023/10/08 03:13:19;;;;;;;9.83;5.80;;;;;;;;;;4454314;32;20557;-88
2023/10/08 03:15:57;;;;;;;13.45;7.10;;;;;;;;;;4454362;32;20522;-88
2023/10/08 03:18:35;;;;;;;10.70;6.30;;;;;;;;;;4454312;32;20534;-88
2023/10/08 03:21:03;;;;;;;15.05;7.03;;;;;;;;;;4454322;32;20526;-87
2023/10/08 03:23:34;;;;;;;14.43;8.13;;;;;;;;;;4454337;32;20612;-87
2023/10/08 03:26:10;;;;;;;12.95;7.32;;;;;;;;;;4454397;32;20264;-88
2023/10/08 03:28:41;;;;;;;19.20;8.77;;;;;;;;;;4454270;32;20503;-88
2023/10/08 03:31:16;;;;;;;19.65;8.43;;;;;;;;;;4454605;32;20651;-88
2023/10/08 03:33:49;;;;;;;23.98;9.98;;;;;;;;;;4454142;32;20587;-85
2023/10/08 03:36:22;;;;;;;18.50;9.13;;;;;;;;;;4453912;32;20443;-88
2023/10/08 03:38:53;;;;;;;21.37;8.75;;;;;;;;;;4454721;32;20637;-85
2023/10/08 03:41:27;;;;;;;19.48;8.73;;;;;;;;;;4453250;32;20534;-85
2023/10/08 03:44:01;;;;;;;15.95;8.73;;;;;;;;;;4459254;32;20236;-86
2023/10/08 03:46:31;;;;;;;16.17;7.20;;;;;;;;;;4466729;26;20256;-92
2023/10/08 03:49:04;;;;;;;17.95;9.40;;;;;;;;;;4436563;32;20297;-92
2023/10/08 03:51:39;;;;;;;17.73;7.55;;;;;;;;;;4409704;32;20253;-92
2023/10/08 03:56:51;;;;;;;19.87;8.70;;;;;;;;;;4414773;32;20259;-91
2023/10/08 03:59:30;;;;;;;16.60;8.83;;;;;;;;;;4435489;32;20760;-91
2023/10/08 04:02:09;;;;;;;18.10;9.23;;;;;;;;;;4421541;32;20263;-92
2023/10/08 04:04:51;;;;;;;17.60;7.62;;;;;;;;;;4435914;32;20240;-92
2023/10/08 04:07:39;;;;;;;46.88;21.23;;;;;;;;;;4436245;32;20256;-89
2023/10/08 04:10:34;;;;;;;32.30;16.57;;;;;;;;;;4435777;32;20237;-90
2023/10/08 04:13:03;;;;;;;32.85;14.93;;;;;;;;;;4435543;32;20260;-91
2023/10/08 04:15:30;;;;;;;18.98;11.40;;;;;;;;;;4421871;32;20699;-91
2023/10/08 04:18:02;;;;;;;41.30;22.52;;;;;;;;;;4432233;32;20719;-91
2023/10/08 04:20:38;;;;;;;36.78;21.62;;;;;;;;;;4435261;32;20248;-92
2023/10/08 04:23:13;;;;;;;26.40;11.83;;;;;;;;;;4415639;32;20271;-92
2023/10/08 04:25:43;;;;;;;22.83;8.43;;;;;;;;;;4435135;32;20308;-91
2023/10/08 04:28:15;;;;;;;16.30;7.30;;;;;;;;;;4415399;32;20751;-91
2023/10/08 04:30:45;;;;;;;24.27;7.67;;;;;;;;;;4437058;32;20256;-92
2023/10/08 04:33:19;;;;;;;14.30;7.53;;;;;;;;;;4435607;32;20253;-91
2023/10/08 04:35:55;;;;;;;11.73;6.03;;;;;;;;;;4435498;32;20637;-91
2023/10/08 04:38:36;;;;;;;14.27;6.23;;;;;;;;;;4415577;32;20258;-92
2023/10/08 04:41:08;;;;;;;10.02;6.65;;;;;;;;;;4436230;32;20572;-92
2023/10/08 04:43:42;;;;;;;12.77;7.30;;;;;;;;;;4434659;32;20631;-91
2023/10/08 04:46:19;;;;;;;10.73;6.90;;;;;;;;;;4413296;32;20252;-91
2023/10/08 04:48:46;;;;;;;14.27;7.60;;;;;;;;;;4436835;32;20259;-91
2023/10/08 04:51:22;;;;;;;21.27;8.67;;;;;;;;;;4415550;32;20634;-91
2023/10/08 04:53:50;;;;;;;16.57;7.83;;;;;;;;;;4418197;32;20269;-91
2023/10/08 04:56:19;;;;;;;22.57;10.20;;;;;;;;;;4413822;32;20309;-92
2023/10/08 04:58:49;;;;;;;19.40;9.67;;;;;;;;;;4434833;32;20677;-90
2023/10/08 05:01:20;;;;;;;31.20;10.77;;;;;;;;;;4413972;32;20256;-91
2023/10/08 05:04:07;;;;;;;20.07;9.17;;;;;;;;;;4434150;32;20258;-92
2023/10/08 05:07:00;;;;;;;19.57;9.90;;;;;;;;;;4423812;32;20249;-91
2023/10/08 05:09:45;;;;;;;15.17;8.03;;;;;;;;;;4435502;32;20267;-90
2023/10/08 05:12:30;;;;;;;13.80;7.27;;;;;;;;;;4449021;32;20254;-92
2023/10/08 05:15:21;;;;;;;12.00;7.47;;;;;;;;;;4448113;32;20201;-93
2023/10/08 05:17:56;;;;;;;13.23;7.50;;;;;;;;;;4397466;32;20296;-90
2023/10/08 05:20:58;;;;;;;13.70;8.20;;;;;;;;;;4427563;32;20251;-92
2023/10/08 05:26:30;;;;;;;15.70;6.67;;;;;;;;;;4413234;32;20302;-91
2023/10/08 05:29:01;;;;;;;8.83;6.57;;;;;;;;;;4434537;32;20607;-91
2023/10/08 05:31:47;;;;;;;17.20;7.63;;;;;;;;;;4435257;32;20308;-91
2023/10/08 05:34:22;;;;;;;10.50;6.57;;;;;;;;;;4412489;32;20248;-92
2023/10/08 05:37:31;;;;;;;13.33;7.90;;;;;;;;;;4435445;32;20699;-92
2023/10/08 05:40:13;;;;;;;26.20;8.53;;;;;;;;;;4412586;32;21838;-91
2023/10/08 05:42:49;;;;;;;16.93;8.03;;;;;;;;;;4402033;32;20252;-92
2023/10/08 05:45:29;;;;;;;12.63;7.30;;;;;;;;;;4416291;32;20264;-92
2023/10/08 05:48:15;;;;;;;14.40;6.33;;;;;;;;;;4411965;32;20334;-90
2023/10/08 05:50:55;;;;;;;15.03;6.90;;;;;;;;;;4435507;32;20249;-91
2023/10/08 05:53:43;;;;;;;13.50;7.87;;;;;;;;;;4435193;32;20303;-91
2023/10/08 05:56:28;;;;;;;13.13;8.00;;;;;;;;;;4420562;32;20256;-93
2023/10/08 05:59:14;;;;;;;18.90;10.63;;;;;;;;;;4401219;32;20870;-92
2023/10/08 06:01:46;;;;;;;17.00;9.97;;;;;;;;;;4403654;32;20248;-91
2023/10/08 06:07:20;;;;;;;14.63;10.20;;;;;;;;;;4384085;32;20317;-92
2023/10/08 06:10:01;;;;;;;14.03;8.43;;;;;;;;;;4396607;32;20327;-92
2023/10/08 06:12:44;;;;;;;14.07;6.70;;;;;;;;;;4403776;32;20248;-92
2023/10/08 06:15:12;;;;;;;19.33;6.60;;;;;;;;;;4394706;32;20238;-91
2023/10/08 06:20:27;;;;;;;11.00;6.70;;;;;;;;;;4374862;32;20276;-90
2023/10/08 06:23:01;;;;;;;8.90;5.37;;;;;;;;;;4394877;32;20230;-90
2023/10/08 06:25:44;;;;;;;20.30;8.37;;;;;;;;;;4407794;32;20205;-91
2023/10/08 06:28:19;;;;;;;24.83;9.15;;;;;;;;;;4413518;32;20280;-92
2023/10/08 06:30:53;;;;;;;14.52;8.38;;;;;;;;;;4377513;32;20366;-92
2023/10/08 06:33:30;;;;;;;22.52;8.38;;;;;;;;;;4404257;32;20253;-90
2023/10/08 06:36:13;;;;;;;21.37;8.95;;;;;;;;;;4226388;32;2333427;-91
2023/10/08 06:38:43;;;;;;;18.00;10.18;;;;;;;;;;4356303;32;318567;-90
2023/10/08 06:41:18;;;;;;;15.77;9.63;;;;;;;;;;4381959;32;327740;-92
2023/10/08 06:44:05;;;;;;;21.07;9.63;;;;;;;;;;4361900;32;317488;-92
2023/10/08 06:49:18;;;;;;;22.70;8.68;;;;;;;;;;4377440;32;390586;-93
2023/10/08 06:51:47;;;;;;;12.82;7.60;;;;;;;;;;4353667;32;317477;-94
2023/10/08 06:54:18;;;;;;;13.32;7.75;;;;;;;;;;4364786;32;316395;-92
2023/10/08 06:56:56;;;;;;;21.50;7.80;;;;;;;;;;4331322;32;317664;-90
2023/10/08 06:59:31;;;;;;;14.45;8.18;;;;;;;;;;4382912;32;317638;-92
2023/10/08 07:01:58;;;;;;;24.58;8.52;;;;;;;;;;4372595;32;317528;-93
2023/10/08 07:04:29;;;;;;;17.67;8.07;;;;;;;;;;4381640;32;347381;-94
2023/10/08 07:06:56;;;;;;;16.08;7.55;;;;;;;;;;4366335;32;317903;-92
2023/10/08 07:09:30;;;;;;;19.90;7.97;;;;;;;;;;4375373;32;318249;-92
2023/10/08 07:11:57;;;;;;;14.20;6.80;;;;;;;;;;4367262;32;318032;-92
2023/10/08 07:14:28;;;;;;;10.27;6.32;;;;;;;;;;4381356;32;317708;-92
2023/10/08 07:16:59;;;;;;;9.45;5.95;;;;;;;;;;4376415;32;317559;-92
2023/10/08 07:19:37;;;;;;;10.68;5.35;;;;;;;;;;4376583;32;315298;-91
2023/10/08 07:22:17;;;;;;;10.00;5.93;;;;;;;;;;4307693;32;418353;-93
2023/10/08 07:24:50;;;;;;;17.85;7.00;;;;;;;;;;4355158;32;317576;-94
2023/10/08 07:27:21;;;;;;;12.60;6.73;;;;;;;;;;4389873;32;317572;-95
2023/10/08 07:30:10;;;;;;;12.03;6.03;;;;;;;;;;4325569;32;317601;-92
2023/10/08 07:32:52;;;;;;;11.53;5.97;;;;;;;;;;4338125;32;353074;-92
2023/10/08 07:35:39;;;;;;;11.00;5.93;;;;;;;;;;4382615;32;317469;-93
2023/10/08 07:38:10;;;;;;;9.63;6.83;;;;;;;;;;4371028;32;418363;-93
2023/10/08 07:40:43;;;;;;;15.07;7.77;;;;;;;;;;4377449;32;316680;-90
2023/10/08 07:43:13;;;;;;;12.45;8.20;;;;;;;;;;4370030;32;317616;-94
2023/10/08 07:45:54;;;;;;;11.97;6.50;;;;;;;;;;4356186;32;317548;-93
2023/10/08 07:48:30;;;;;;;19.92;7.50;;;;;;;;;;4383405;32;317694;-93
2023/10/08 07:51:02;;;;;;;9.07;5.97;;;;;;;;;;4378096;32;317604;-93
2023/10/08 07:53:38;;;;;;;13.82;6.68;;;;;;;;;;4362892;32;316681;-92
2023/10/08 07:56:20;;;;;;;16.58;7.10;;;;;;;;;;4365036;32;415883;-91
2023/10/08 07:58:58;;;;;;;11.75;6.07;;;;;;;;;;4353168;32;317576;-94
2023/10/08 08:01:48;;;;;;;11.85;5.50;;;;;;;;;;4364061;32;317525;-93
2023/10/08 08:04:22;;;;;;;14.45;5.53;;;;;;;;;;4376455;32;418981;-93
2023/10/08 08:06:53;;;;;;;13.80;6.05;;;;;;;;;;4353736;32;317799;-93
2023/10/08 08:09:29;;;;;;;12.27;6.85;;;;;;;;;;4379513;32;327871;-92
2023/10/08 08:12:11;;;;;;;13.73;5.87;;;;;;;;;;4321378;32;317763;-93
2023/10/08 08:14:50;;;;;;;18.02;5.65;;;;;;;;;;4361900;32;317363;-91
2023/10/08 08:17:22;;;;;;;10.95;5.18;;;;;;;;;;4369677;32;317668;-91
2023/10/08 08:19:55;;;;;;;17.37;8.00;;;;;;;;;;4371699;32;317526;-92
2023/10/08 08:22:40;;;;;;;11.75;6.32;;;;;;;;;;4371192;32;317577;-93
2023/10/08 08:25:33;;;;;;;9.30;5.07;;;;;;;;;;4354431;32;420927;-91
2023/10/08 08:28:16;;;;;;;9.45;5.75;;;;;;;;;;4347098;32;389087;-91
2023/10/08 08:30:52;;;;;;;11.18;6.07;;;;;;;;;;4364843;32;316906;-94
2023/10/08 08:33:52;;;;;;;10.43;5.10;;;;;;;;;;4364981;32;317659;-94
2023/10/08 08:39:11;;;;;;;11.93;5.40;;;;;;;;;;4362936;32;388202;-93
2023/10/08 08:42:06;;;;;;;12.35;5.32;;;;;;;;;;4364744;32;317080;-93
2023/10/08 08:44:47;;;;;;;11.70;5.15;;;;;;;;;;4351045;32;316178;-93
2023/10/08 08:47:20;;;;;;;7.07;4.68;;;;;;;;;;4353912;32;389389;-92
2023/10/08 08:50:26;;;;;;;7.25;4.53;;;;;;;;;;4360864;32;315302;-91
2023/10/08 08:53:04;;;;;;;10.40;4.93;;;;;;;;;;4348780;32;315954;-91
2023/10/08 08:55:48;;;;;;;7.55;4.62;;;;;;;;;;4394233;32;315118;-91
2023/10/08 08:58:30;;;;;;;11.27;4.80;;;;;;;;;;4334754;32;387935;-92
2023/10/08 09:00:59;;;;;;;7.40;3.97;;;;;;;;;;4371529;32;316133;-91
2023/10/08 09:03:34;;;;;;;10.07;4.93;;;;;;;;;;4381036;32;315099;-91
2023/10/08 09:06:14;;;;;;;9.00;4.62;;;;;;;;;;4332060;32;420014;-94
2023/10/08 09:08:45;;;;;;;11.65;4.87;;;;;;;;;;4349196;32;316526;-92
2023/10/08 09:11:20;;;;;;;9.35;4.35;;;;;;;;;;4370424;32;346191;-93
2023/10/08 09:13:53;;;;;;;9.07;5.82;;;;;;;;;;4344868;32;316452;-93
2023/10/08 09:16:38;;;;;;;9.82;5.95;;;;;;;;;;4339700;32;315267;-91
2023/10/08 09:22:26;;;;;;;14.10;5.60;;;;;;;;;;4309347;32;316527;-92
2023/10/08 09:25:30;;;;;;;12.88;5.45;;;;;;;;;;4314856;32;317547;-93
2023/10/08 09:28:26;;;;;;;11.25;4.28;;;;;;;;;;4266854;32;317298;-90
2023/10/08 09:31:14;;;;;;;11.73;4.40;;;;;;;;;;4285925;33;317056;-89
2023/10/08 09:34:02;;;;;;;6.57;3.83;;;;;;;;;;4306353;32;317473;-91
2023/10/08 09:36:36;;;;;;;15.50;5.05;;;;;;;;;;4305341;33;315318;-91
2023/10/08 09:39:23;;;;;;;15.45;5.97;;;;;;;;;;4304205;33;415732;-91
2023/10/08 09:41:58;;;;;;;7.80;4.73;;;;;;;;;;4290307;32;354024;-93
2023/10/08 09:44:42;;;;;;;12.88;4.78;;;;;;;;;;4308949;33;314381;-93
2023/10/08 09:47:24;;;;;;;12.48;5.10;;;;;;;;;;4289018;33;420099;-90
2023/10/08 09:50:24;;;;;;;10.40;4.60;;;;;;;;;;4278865;32;317367;-92
2023/10/08 09:53:15;;;;;;;9.57;4.32;;;;;;;;;;4296903;32;317300;-91
2023/10/08 09:56:25;;;;;;;;;;;;;;;;;;;;;
2023/10/08 10:05:32;;;;;;;8.23;4.30;;;;;;;;;;4320647;32;317674;-93
2023/10/08 10:17:36;;;;;;;11.07;4.05;;;;;;;;;;4346413;32;316538;-93
2023/10/08 10:23:59;;;;;;;7.87;4.53;;;;;;;;;;4328062;32;390150;-92
2023/10/08 10:27:09;;;;;;;7.18;4.70;;;;;;;;;;4348123;32;417027;-91
2023/10/08 10:36:19;;;;;;;6.40;4.07;;;;;;;;;;4308074;32;388835;-92
2023/10/08 10:39:26;;;;;;;14.47;5.37;;;;;;;;;;4300521;32;344201;-92
2023/10/08 10:42:20;;;;;;;9.73;4.53;;;;;;;;;;4297075;32;317444;-92
2023/10/08 10:45:09;;;;;;;11.05;4.90;;;;;;;;;;4308500;32;316364;-92
2023/10/08 10:51:17;;;;;;;14.80;5.28;;;;;;;;;;4225887;32;317430;-93
2023/10/08 10:54:27;;;;;;;8.50;4.68;;;;;;;;;;4248509;32;318542;-94
2023/10/08 11:14:15;;;;;;;9.75;3.92;;;;;;;;;;4273464;27;387817;-84
2023/10/08 11:16:45;;;;;;;11.15;4.55;;;;;;;;;;4326732;32;316790;-85
2023/10/08 11:33:15;;;;;;;16.70;4.97;;;;;;;;;;4335491;32;316029;-83
2023/10/08 11:36:00;;;;;;;14.57;4.60;;;;;;;;;;4326593;32;318108;-86
2023/10/08 11:38:28;;;;;;;17.75;5.12;;;;;;;;;;4341436;32;317766;-86
2023/10/08 11:40:57;;;;;;;13.60;4.90;;;;;;;;;;4329379;32;317253;-86
2023/10/08 11:43:25;;;;;;;23.83;4.80;;;;;;;;;;4338058;32;318099;-84
2023/10/08 11:45:55;;;;;;;14.18;3.62;;;;;;;;;;4326645;32;317932;-87
2023/10/08 11:48:28;;;;;;;14.25;4.72;;;;;;;;;;4342588;32;317907;-90
2023/10/08 11:50:57;;;;;;;13.47;3.80;;;;;;;;;;4328121;32;317706;-88
2023/10/08 11:53:28;;;;;;;16.73;4.30;;;;;;;;;;4341930;32;317471;-87
2023/10/08 11:55:57;;;;;;;13.77;4.03;;;;;;;;;;4328024;32;317967;-87
2023/10/08 11:58:37;;;;;;;10.43;3.55;;;;;;;;;;4342230;32;317686;-86
2023/10/08 12:01:05;;;;;;;16.62;4.18;;;;;;;;;;4327611;32;416904;-87
2023/10/08 12:03:34;;;;;;;9.55;4.03;;;;;;;;;;4341260;32;317568;-87
2023/10/08 12:06:05;;;;;;;9.40;3.72;;;;;;;;;;4325256;32;386103;-86
2023/10/08 12:08:39;;;;;;;11.15;3.80;;;;;;;;;;4340751;32;316606;-88
2023/10/08 12:11:11;;;;;;;25.83;3.50;;;;;;;;;;4308868;32;417136;-88
2023/10/08 12:13:44;;;;;;;16.62;3.53;;;;;;;;;;4326448;32;318036;-85
2023/10/08 12:16:18;;;;;;;16.70;3.78;;;;;;;;;;4338332;32;318027;-84
2023/10/08 12:18:53;;;;;;;15.32;4.00;;;;;;;;;;4328691;32;317772;-92
2023/10/08 12:21:21;;;;;;;25.25;4.47;;;;;;;;;;4338640;32;317827;-83
2023/10/08 12:23:51;;;;;;;20.40;4.53;;;;;;;;;;4326634;32;317888;-92
2023/10/08 12:26:19;;;;;;;16.05;4.95;;;;;;;;;;4336970;32;318005;-82
2023/10/08 12:28:48;;;;;;;16.95;4.37;;;;;;;;;;4326715;32;318022;-82
2023/10/08 12:31:16;;;;;;;17.58;4.78;;;;;;;;;;4338148;32;317797;-82
2023/10/08 12:33:47;;;;;;;25.75;4.78;;;;;;;;;;4310708;33;317754;-82
2023/10/08 12:36:16;;;;;;;26.37;6.72;;;;;;;;;;4325514;33;317698;-82
2023/10/08 12:38:47;;;;;;;25.33;6.12;;;;;;;;;;4318407;32;317908;-85
2023/10/08 12:49:01;;;;;;;13.95;3.75;;;;;;;;;;3957319;27;332207;-88
2023/10/08 12:51:33;;;;;;;17.45;5.00;;;;;;;;;;4328638;32;317569;-86
2023/10/08 12:54:06;;;;;;;17.90;5.82;;;;;;;;;;4310354;33;317973;-87
2023/10/08 12:56:38;;;;;;;20.55;5.20;;;;;;;;;;4323412;33;317903;-85
2023/10/08 12:59:07;;;;;;;17.30;4.70;;;;;;;;;;4302167;33;389045;-85
2023/10/08 13:01:36;;;;;;;17.58;5.95;;;;;;;;;;4315558;33;317779;-88
2023/10/08 13:04:07;;;;;;;14.65;4.25;;;;;;;;;;4308168;32;417219;-87
2023/10/08 13:06:37;;;;;;;22.08;4.55;;;;;;;;;;4324456;33;317784;-84
2023/10/08 13:09:12;;;;;;;22.30;4.72;;;;;;;;;;4312419;33;387293;-85
2023/10/08 13:11:40;;;;;;;12.98;3.50;;;;;;;;;;4312732;33;317749;-85
2023/10/08 13:14:07;;;;;;;14.40;4.00;;;;;;;;;;4323854;33;317777;-83
2023/10/08 13:16:37;;;;;;;25.27;4.45;;;;;;;;;;4323117;33;317598;-84
2023/10/08 13:19:08;;;;;;;22.55;4.07;;;;;;;;;;4309775;33;417451;-83
2023/10/08 13:21:37;;;;;;;17.15;3.72;;;;;;;;;;4322233;33;318163;-82
2023/10/08 13:24:08;;;;;;;18.58;3.95;;;;;;;;;;4310369;33;317714;-83
2023/10/08 13:26:38;;;;;;;24.00;4.22;;;;;;;;;;4322815;33;317859;-84
2023/10/08 13:29:09;;;;;;;11.35;3.42;;;;;;;;;;4312479;33;347481;-85
2023/10/08 13:31:36;;;;;;;21.25;4.20;;;;;;;;;;4324039;33;317898;-82
2023/10/08 13:34:08;;;;;;;12.55;4.05;;;;;;;;;;4317799;32;317556;-83
2023/10/08 13:36:39;;;;;;;13.88;3.87;;;;;;;;;;4337548;33;318154;-83
2023/10/08 13:39:09;;;;;;;15.52;5.37;;;;;;;;;;4324757;33;420469;-82
2023/10/08 13:41:38;;;;;;;27.62;4.70;;;;;;;;;;4336228;33;349594;-82
2023/10/08 13:44:06;;;;;;;20.85;4.85;;;;;;;;;;4324418;32;317699;-83
2023/10/08 13:46:36;;;;;;;19.33;5.53;;;;;;;;;;4337336;33;317834;-85
2023/10/08 13:49:05;;;;;;;22.27;5.28;;;;;;;;;;4327100;32;317888;-83
2023/10/08 13:51:34;;;;;;;17.02;4.12;;;;;;;;;;4338909;33;317797;-83
2023/10/08 13:54:06;;;;;;;9.73;3.80;;;;;;;;;;4325041;32;318092;-83
2023/10/08 13:56:37;;;;;;;12.65;4.37;;;;;;;;;;4337412;33;316701;-85
2023/10/08 13:59:11;;;;;;;17.37;3.30;;;;;;;;;;4326843;32;317764;-84
2023/10/08 14:01:42;;;;;;;27.42;4.32;;;;;;;;;;4338098;33;317706;-84
2023/10/08 14:04:10;;;;;;;15.00;3.97;;;;;;;;;;4321605;33;420729;-84
2023/10/08 14:06:40;;;;;;;18.67;4.80;;;;;;;;;;4336762;33;317730;-84
2023/10/08 14:09:12;;;;;;;16.87;3.90;;;;;;;;;;4324834;33;417021;-84
2023/10/08 14:11:39;;;;;;;10.45;3.58;;;;;;;;;;4338958;33;317816;-84
2023/10/08 14:14:10;;;;;;;17.62;3.67;;;;;;;;;;4324507;32;317792;-84
2023/10/08 14:16:41;;;;;;;15.00;4.80;;;;;;;;;;4336173;33;318295;-85
2023/10/08 14:19:12;;;;;;;12.05;4.70;;;;;;;;;;4323757;33;417036;-84
2023/10/08 14:21:49;;;;;;;19.35;3.83;;;;;;;;;;4336689;33;317797;-84
2023/10/08 14:24:19;;;;;;;12.13;3.58;;;;;;;;;;4320536;32;417148;-83
2023/10/08 14:26:52;;;;;;;18.27;4.68;;;;;;;;;;4329763;32;317965;-82
2023/10/08 14:29:20;;;;;;;13.98;4.78;;;;;;;;;;4341026;32;317837;-83
2023/10/08 14:31:49;;;;;;;17.17;3.85;;;;;;;;;;4330215;32;318062;-83
2023/10/08 14:34:29;;;;;;;15.85;4.20;;;;;;;;;;4338071;32;317822;-83
2023/10/08 14:45:13;;;;;;;16.33;4.47;;;;;;;;;;4328402;32;388888;-84
2023/10/08 14:47:41;;;;;;;22.70;4.32;;;;;;;;;;4337403;32;317921;-83
2023/10/08 14:50:15;;;;;;;13.57;3.45;;;;;;;;;;4324999;32;417162;-84
2023/10/08 14:52:43;;;;;;;16.65;3.95;;;;;;;;;;4329635;32;318043;-83
2023/10/08 14:55:12;;;;;;;22.08;5.15;;;;;;;;;;4340241;32;318216;-84
2023/10/08 14:57:41;;;;;;;17.92;4.25;;;;;;;;;;4336683;32;317853;-85
2023/10/08 15:00:10;;;;;;;17.92;3.83;;;;;;;;;;4322665;32;417114;-86
2023/10/08 15:02:37;;;;;;;10.45;3.90;;;;;;;;;;4331118;32;317923;-82
2023/10/08 15:05:06;;;;;;;19.50;4.12;;;;;;;;;;4329118;32;318016;-82
2023/10/08 15:07:34;;;;;;;13.23;3.97;;;;;;;;;;4340082;32;317989;-82
2023/10/08 15:10:02;;;;;;;25.15;4.70;;;;;;;;;;4325087;32;317986;-82
2023/10/08 15:12:34;;;;;;;16.90;4.28;;;;;;;;;;4339331;32;317627;-81
2023/10/08 15:15:12;;;;;;;18.58;4.10;;;;;;;;;;4328861;32;318063;-82
2023/10/08 15:17:43;;;;;;;17.33;3.87;;;;;;;;;;4339535;32;317751;-81
2023/10/08 15:20:14;;;;;;;12.00;4.37;;;;;;;;;;4325011;32;417269;-82
2023/10/08 15:22:43;;;;;;;14.57;3.58;;;;;;;;;;4339828;32;317984;-82
2023/10/08 15:25:11;;;;;;;21.95;4.22;;;;;;;;;;4326251;32;389301;-82
2023/10/08 15:27:43;;;;;;;10.77;3.85;;;;;;;;;;4339516;32;318128;-82
2023/10/08 15:30:12;;;;;;;21.65;4.70;;;;;;;;;;4321657;32;420615;-85
2023/10/08 15:32:40;;;;;;;21.55;6.53;;;;;;;;;;4336437;32;317724;-85
2023/10/08 15:35:09;;;;;;;16.30;4.60;;;;;;;;;;4325742;32;387069;-82
2023/10/08 15:37:46;;;;;;;14.13;5.05;;;;;;;;;;4338441;32;316710;-85
2023/10/08 15:40:18;;;;;;;18.80;3.78;;;;;;;;;;4321737;32;416910;-84
2023/10/08 15:42:50;;;;;;;11.80;4.05;;;;;;;;;;4326781;32;317923;-85
2023/10/08 15:45:19;;;;;;;16.62;4.03;;;;;;;;;;4338052;32;317856;-87
2023/10/08 15:47:48;;;;;;;19.15;5.60;;;;;;;;;;4323419;32;317708;-92
2023/10/08 15:50:16;;;;;;;17.27;4.65;;;;;;;;;;4317611;32;318218;-90
2023/10/08 15:52:44;;;;;;;13.70;4.05;;;;;;;;;;4326394;32;317828;-88
2023/10/08 15:55:12;;;;;;;19.75;5.80;;;;;;;;;;4338889;32;318013;-89
2023/10/08 15:57:40;;;;;;;19.23;4.12;;;;;;;;;;4337603;32;317932;-90
2023/10/08 16:00:10;;;;;;;28.87;4.75;;;;;;;;;;4318758;32;416802;-89
2023/10/08 16:02:38;;;;;;;19.27;4.18;;;;;;;;;;4338564;32;317912;-88
2023/10/08 16:05:07;;;;;;;17.45;3.97;;;;;;;;;;4328274;32;317683;-88
2023/10/08 16:07:35;;;;;;;17.58;4.97;;;;;;;;;;4338480;32;317683;-89
2023/10/08 16:10:06;;;;;;;18.23;6.07;;;;;;;;;;4323162;32;317911;-88
2023/10/08 16:12:36;;;;;;;22.30;5.82;;;;;;;;;;4337160;32;326253;-89
2023/10/08 16:15:04;;;;;;;23.27;6.20;;;;;;;;;;4326992;32;317834;-89
2023/10/08 16:17:33;;;;;;;19.67;4.35;;;;;;;;;;4337187;32;334512;-89
2023/10/08 16:20:13;;;;;;;14.83;4.40;;;;;;;;;;4325924;32;317959;-89
2023/10/08 16:22:41;;;;;;;14.82;5.18;;;;;;;;;;4338074;32;317992;-90
2023/10/08 16:25:14;;;;;;;19.92;5.30;;;;;;;;;;4324805;32;417142;-87
2023/10/08 16:27:48;;;;;;;17.74;4.84;;;;;;;;;;4334627;32;317711;-86
2023/10/08 16:30:17;;;;;;;11.65;4.80;;;;;;;;;;4335516;32;317865;-88
2023/10/08 16:32:48;;;;;;;15.25;3.97;;;;;;;;;;4328668;32;317908;-87
2023/10/08 16:35:17;;;;;;;13.85;5.47;;;;;;;;;;4338035;32;317731;-85
2023/10/08 16:37:44;;;;;;;21.15;5.65;;;;;;;;;;4328946;32;317839;-87
2023/10/08 16:40:13;;;;;;;12.60;5.53;;;;;;;;;;4335367;32;317972;-87
2023/10/08 16:42:40;;;;;;;24.17;5.57;;;;;;;;;;4337005;32;317857;-86
2023/10/08 16:45:09;;;;;;;16.30;5.20;;;;;;;;;;4325998;32;386459;-86
2023/10/08 16:47:37;;;;;;;13.90;4.87;;;;;;;;;;4336664;32;317787;-85
2023/10/08 16:50:07;;;;;;;20.88;5.53;;;;;;;;;;4325320;32;331859;-85